createdAt,value
2018-06-10T00:02:01.144Z,19.40
2018-06-10T00:04:30.713Z,19.40
2018-06-10T00:07:00.363Z,19.30
2018-06-10T00:09:30.054Z,19.30
2018-06-10T00:11:59.737Z,19.30
2018-06-10T00:16:58.389Z,19.30
2018-06-10T00:19:28.160Z,19.20
2018-06-10T00:21:57.909Z,19.20
2018-06-10T00:24:27.581Z,19.10
2018-06-10T00:26:57.285Z,19.10
2018-06-10T00:31:56.114Z,19.00
2018-06-10T00:34:25.667Z,19.00
2018-06-10T00:36:55.446Z,18.90
2018-06-10T00:39:25.147Z,18.90
2018-06-10T00:41:54.820Z,18.90
2018-06-10T00:46:53.568Z,18.80
2018-06-10T00:49:23.248Z,18.80
2018-06-10T00:51:52.945Z,18.80
2018-06-10T00:54:22.489Z,18.70
2018-06-10T00:56:53.319Z,18.70
2018-06-10T00:59:22.904Z,18.70
2018-06-10T01:01:52.696Z,18.70
2018-06-10T01:06:51.562Z,18.70
2018-06-10T01:09:21.416Z,18.80
2018-06-10T01:11:51.491Z,18.80
2018-06-10T01:14:21.200Z,18.80
2018-06-10T01:16:50.884Z,18.70
2018-06-10T01:19:20.664Z,18.70
2018-06-10T01:21:50.320Z,18.70
2018-06-10T01:24:20.278Z,18.80
2018-06-10T01:26:50.938Z,18.80
2018-06-10T01:29:20.893Z,18.80
2018-06-10T01:31:50.752Z,18.80
2018-06-10T01:34:20.296Z,18.70
2018-06-10T01:36:49.992Z,18.70
2018-06-10T01:39:19.785Z,18.70
2018-06-10T01:41:49.421Z,18.60
2018-06-10T01:44:18.987Z,18.60
2018-06-10T01:46:48.839Z,18.60
2018-06-10T01:51:47.541Z,18.60
2018-06-10T01:54:17.148Z,18.60
2018-06-10T01:56:46.872Z,18.60
2018-06-10T01:59:16.695Z,18.60
2018-06-10T02:01:46.364Z,18.60
2018-06-10T02:04:16.008Z,18.60
2018-06-10T02:06:45.797Z,18.60
2018-06-10T02:09:15.479Z,18.50
2018-06-10T02:11:45.135Z,18.50
2018-06-10T02:14:15.349Z,18.50
2018-06-10T02:16:45.175Z,18.50
2018-06-10T02:19:14.929Z,18.50
2018-06-10T02:21:46.604Z,18.50
2018-06-10T02:26:51.363Z,18.40
2018-06-10T02:29:21.108Z,18.40
2018-06-10T02:31:50.892Z,18.40
2018-06-10T02:34:20.501Z,18.30
2018-06-10T02:36:50.327Z,18.30
2018-06-10T02:39:20.001Z,18.30
2018-06-10T02:41:49.689Z,18.30
2018-06-10T02:46:48.245Z,18.30
2018-06-10T02:49:18.008Z,18.30
2018-06-10T02:51:47.669Z,18.30
2018-06-10T02:54:17.348Z,18.40
2018-06-10T02:56:47.037Z,18.30
2018-06-10T02:59:16.785Z,18.30
2018-06-10T03:01:46.443Z,18.30
2018-06-10T03:04:16.315Z,18.30
2018-06-10T03:06:46.104Z,18.30
2018-06-10T03:09:15.828Z,18.30
2018-06-10T03:11:45.453Z,18.30
2018-06-10T03:14:15.213Z,18.30
2018-06-10T03:16:44.842Z,18.30
2018-06-10T03:19:14.626Z,18.30
2018-06-10T03:24:13.351Z,18.20
2018-06-10T03:26:42.959Z,18.20
2018-06-10T03:29:12.540Z,18.20
2018-06-10T03:31:42.281Z,18.30
2018-06-10T03:34:11.868Z,18.30
2018-06-10T03:36:41.612Z,18.30
2018-06-10T03:39:11.309Z,18.30
2018-06-10T03:41:40.985Z,18.40
2018-06-10T03:46:39.735Z,18.30
2018-06-10T03:49:09.415Z,18.40
2018-06-10T03:51:39.110Z,18.40
2018-06-10T03:54:08.767Z,18.40
2018-06-10T03:56:38.447Z,18.30
2018-06-10T03:59:08.141Z,18.40
2018-06-10T04:01:38.111Z,18.40
2018-06-10T04:04:07.907Z,18.30
2018-06-10T04:06:37.612Z,18.30
2018-06-10T04:09:08.131Z,18.40
2018-06-10T04:11:37.869Z,18.40
2018-06-10T04:14:07.537Z,18.40
2018-06-10T04:16:37.225Z,18.40
2018-06-10T04:19:06.785Z,18.50
2018-06-10T04:21:36.449Z,18.50
2018-06-10T04:24:06.213Z,18.50
2018-06-10T04:26:35.977Z,18.50
2018-06-10T04:29:05.532Z,18.50
2018-06-10T04:31:35.130Z,18.60
2018-06-10T04:34:04.952Z,18.60
2018-06-10T04:36:34.754Z,18.60
2018-06-10T04:39:06.206Z,18.70
2018-06-10T04:41:36.017Z,18.70
2018-06-10T04:44:05.709Z,18.80
2018-06-10T04:46:35.392Z,18.80
2018-06-10T04:51:33.937Z,18.90
2018-06-10T04:54:03.628Z,19.00
2018-06-10T04:56:33.408Z,19.00
2018-06-10T04:59:03.070Z,19.00
2018-06-10T05:01:32.821Z,19.10
2018-06-10T05:04:02.573Z,19.20
2018-06-10T05:06:32.169Z,19.30
2018-06-10T05:09:01.865Z,19.30
2018-06-10T05:11:31.617Z,19.40
2018-06-10T05:14:01.477Z,19.50
2018-06-10T05:16:31.347Z,19.50
2018-06-10T05:19:01.249Z,19.60
2018-06-10T05:21:31.068Z,19.70
2018-06-10T05:24:00.665Z,19.80
2018-06-10T05:26:30.436Z,19.90
2018-06-10T05:29:00.191Z,20.00
2018-06-10T05:31:33.984Z,20.10
2018-06-10T05:34:05.428Z,20.20
2018-06-10T05:36:35.271Z,20.30
2018-06-10T05:39:07.220Z,20.40
2018-06-10T05:41:36.938Z,20.50
2018-06-10T05:44:06.902Z,20.60
2018-06-10T05:46:36.670Z,20.70
2018-06-10T05:49:06.326Z,20.80
2018-06-10T05:51:35.986Z,20.90
2018-06-10T05:54:05.773Z,21.00
2018-06-10T05:56:35.509Z,21.20
2018-06-10T05:59:05.308Z,21.30
2018-06-10T06:01:35.041Z,21.40
2018-06-10T06:04:04.785Z,21.60
2018-06-10T06:06:34.537Z,21.70
2018-06-10T06:09:04.180Z,21.80
2018-06-10T06:11:33.908Z,21.90
2018-06-10T06:14:03.656Z,22.00
2018-06-10T06:16:33.338Z,22.10
2018-06-10T06:19:03.000Z,22.30
2018-06-10T06:21:32.696Z,22.40
2018-06-10T06:24:02.304Z,22.50
2018-06-10T06:26:31.816Z,22.70
2018-06-10T06:29:01.612Z,22.80
2018-06-10T06:31:31.285Z,23.00
2018-06-10T06:34:00.966Z,23.10
2018-06-10T06:36:30.505Z,23.30
2018-06-10T06:39:00.110Z,23.50
2018-06-10T06:41:29.766Z,23.70
2018-06-10T06:43:59.440Z,23.90
2018-06-10T06:49:00.888Z,25.90
2018-06-10T06:51:30.544Z,28.20
2018-06-10T06:54:00.245Z,30.30
2018-06-10T06:56:29.719Z,32.10
2018-06-10T06:58:59.364Z,33.60
2018-06-10T07:01:28.956Z,34.50
2018-06-10T07:03:58.640Z,35.50
2018-06-10T07:08:57.345Z,36.80
2018-06-10T07:11:26.980Z,37.00
2018-06-10T07:13:56.560Z,37.40
2018-06-10T07:16:26.196Z,37.50
2018-06-10T07:18:55.831Z,38.00
2018-06-10T07:21:25.579Z,38.30
2018-06-10T07:23:55.112Z,38.50
2018-06-10T07:26:24.718Z,38.90
2018-06-10T07:28:54.411Z,39.20
2018-06-10T07:33:53.216Z,40.20
2018-06-10T07:36:22.866Z,40.20
2018-06-10T07:38:52.733Z,40.40
2018-06-10T07:41:22.465Z,40.50
2018-06-10T07:43:52.060Z,40.70
2018-06-10T07:46:21.712Z,40.50
2018-06-10T07:48:51.588Z,40.40
2018-06-10T07:51:21.236Z,40.20
2018-06-10T07:53:50.920Z,40.50
2018-06-10T07:58:42.362Z,40.50
2018-06-10T08:01:12.141Z,40.70
2018-06-10T08:03:42.012Z,40.90
2018-06-10T08:06:11.761Z,40.80
2018-06-10T08:08:41.408Z,40.50
2018-06-10T08:11:11.102Z,40.80
2018-06-10T08:13:40.740Z,41.60
2018-06-10T08:16:10.440Z,41.80
2018-06-10T08:18:40.220Z,42.00
2018-06-10T08:21:09.937Z,42.70
2018-06-10T08:23:39.560Z,42.80
2018-06-10T08:26:09.234Z,42.60
2018-06-10T08:28:39.001Z,43.00
2018-06-10T08:31:08.382Z,43.30
2018-06-10T08:33:37.926Z,43.00
2018-06-10T08:36:07.317Z,43.00
2018-06-10T08:38:36.694Z,43.00
2018-06-10T08:41:06.145Z,43.40
2018-06-10T08:43:35.516Z,43.50
2018-06-10T08:46:04.890Z,43.50
2018-06-10T08:48:34.293Z,43.80
2018-06-10T08:51:03.686Z,44.20
2018-06-10T08:53:33.053Z,43.90
2018-06-10T08:56:02.422Z,43.70
2018-06-10T08:58:31.785Z,43.10
2018-06-10T09:01:01.185Z,42.60
2018-06-10T09:03:30.549Z,42.60
2018-06-10T09:05:59.936Z,42.30
2018-06-10T09:08:29.392Z,42.70
2018-06-10T09:10:58.753Z,42.70
2018-06-10T09:13:28.133Z,43.20
2018-06-10T09:15:57.536Z,42.90
2018-06-10T09:18:26.996Z,42.80
2018-06-10T09:20:56.365Z,43.50
2018-06-10T09:23:25.963Z,43.50
2018-06-10T09:25:55.357Z,43.40
2018-06-10T09:28:24.740Z,43.30
2018-06-10T09:30:54.456Z,43.50
2018-06-10T09:33:23.840Z,43.40
2018-06-10T09:35:53.364Z,43.30
2018-06-10T09:38:22.740Z,43.40
2018-06-10T09:40:52.142Z,43.10
2018-06-10T09:43:21.690Z,43.30
2018-06-10T09:45:51.104Z,43.20
2018-06-10T09:48:20.532Z,43.00
2018-06-10T09:50:49.907Z,42.90
2018-06-10T09:53:19.320Z,41.60
2018-06-10T09:55:48.684Z,40.30
2018-06-10T09:58:18.060Z,40.80
2018-06-10T10:00:47.443Z,41.00
2018-06-10T10:05:45.875Z,41.30
2018-06-10T10:08:15.291Z,41.50
2018-06-10T10:10:44.869Z,41.60
2018-06-10T10:15:43.329Z,42.00
2018-06-10T10:18:12.730Z,41.80
2018-06-10T10:20:42.116Z,41.10
2018-06-10T10:23:11.565Z,40.80
2018-06-10T10:25:40.947Z,40.40
2018-06-10T10:28:10.333Z,39.90
2018-06-10T10:30:39.730Z,39.50
2018-06-10T10:33:09.938Z,38.80
2018-06-10T10:35:39.317Z,38.10
2018-06-10T10:38:08.713Z,37.00
2018-06-10T10:40:38.126Z,36.30
2018-06-10T10:43:07.501Z,35.60
2018-06-10T10:45:36.878Z,35.00
2018-06-10T10:48:06.265Z,34.20
2018-06-10T10:50:35.678Z,33.70
2018-06-10T10:53:05.075Z,33.20
2018-06-10T10:55:34.476Z,32.70
2018-06-10T10:58:03.886Z,32.40
2018-06-10T11:00:33.270Z,31.90
2018-06-10T11:03:02.645Z,31.60
2018-06-10T11:05:32.021Z,31.40
2018-06-10T11:08:01.474Z,31.20
2018-06-10T11:10:30.896Z,31.00
2018-06-10T11:13:00.290Z,30.80
2018-06-10T11:15:29.722Z,30.40
2018-06-10T11:17:59.143Z,30.10
2018-06-10T11:20:28.586Z,29.80
2018-06-10T11:22:58.081Z,29.40
2018-06-10T11:25:27.525Z,28.90
2018-06-10T11:27:56.974Z,28.70
2018-06-10T11:30:26.413Z,28.40
2018-06-10T11:32:55.867Z,28.10
2018-06-10T11:35:25.707Z,27.90
2018-06-10T11:37:55.126Z,27.60
2018-06-10T11:40:24.921Z,27.50
2018-06-10T11:42:54.329Z,27.30
2018-06-10T11:45:23.742Z,27.30
2018-06-10T11:47:53.177Z,27.30
2018-06-10T11:50:22.688Z,27.40
2018-06-10T11:52:52.108Z,27.40
2018-06-10T11:55:21.514Z,27.50
2018-06-10T11:57:50.913Z,27.60
2018-06-10T12:00:20.681Z,27.70
2018-06-10T12:02:50.113Z,27.80
2018-06-10T12:05:19.600Z,28.00
2018-06-10T12:07:49.064Z,28.10
2018-06-10T12:10:18.540Z,28.20
2018-06-10T12:12:47.980Z,28.50
2018-06-10T12:15:17.441Z,28.80
2018-06-10T12:17:46.914Z,29.20
2018-06-10T12:20:16.375Z,29.50
2018-06-10T12:22:45.863Z,29.80
2018-06-10T12:25:15.361Z,29.90
2018-06-10T12:27:44.788Z,29.80
2018-06-10T12:30:14.230Z,29.60
2018-06-10T12:32:43.699Z,29.40
2018-06-10T12:35:13.177Z,29.30
2018-06-10T12:37:42.640Z,29.10
2018-06-10T12:40:12.080Z,28.90
2018-06-10T12:42:41.495Z,28.80
2018-06-10T12:45:10.949Z,28.70
2018-06-10T12:47:40.385Z,28.60
2018-06-10T12:50:09.827Z,28.50
2018-06-10T12:52:39.296Z,28.40
2018-06-10T12:55:08.763Z,28.40
2018-06-10T12:57:38.202Z,28.30
2018-06-10T13:00:07.753Z,28.30
2018-06-10T13:02:37.195Z,28.40
2018-06-10T13:05:06.751Z,28.50
2018-06-10T13:07:36.173Z,28.70
2018-06-10T13:10:05.636Z,28.80
2018-06-10T13:12:35.055Z,28.90
2018-06-10T13:15:04.506Z,28.90
2018-06-10T13:17:33.986Z,28.90
2018-06-10T13:20:03.443Z,28.90
2018-06-10T13:22:32.948Z,28.70
2018-06-10T13:27:31.304Z,28.20
2018-06-10T13:30:00.717Z,28.00
2018-06-10T13:32:30.155Z,27.80
2018-06-10T13:34:59.657Z,27.70
2018-06-10T13:37:29.111Z,27.50
2018-06-10T13:39:58.556Z,27.30
2018-06-10T13:42:27.962Z,27.10
2018-06-10T13:44:57.426Z,27.00
2018-06-10T13:47:26.858Z,27.00
2018-06-10T13:49:56.300Z,26.90
2018-06-10T13:52:25.780Z,26.80
2018-06-10T13:54:55.190Z,26.80
2018-06-10T13:57:24.610Z,26.80
2018-06-10T13:59:54.022Z,26.80
2018-06-10T14:02:23.426Z,26.80
2018-06-10T14:04:52.839Z,26.80
2018-06-10T14:07:22.277Z,26.70
2018-06-10T14:09:51.737Z,26.70
2018-06-10T14:12:21.166Z,26.70
2018-06-10T14:14:50.577Z,26.90
2018-06-10T14:17:19.969Z,27.10
2018-06-10T14:19:49.462Z,27.20
2018-06-10T14:22:19.021Z,27.40
2018-06-10T14:24:48.573Z,27.60
2018-06-10T14:27:18.154Z,27.60
2018-06-10T14:29:47.588Z,27.60
2018-06-10T14:32:17.090Z,27.50
2018-06-10T14:34:46.599Z,27.30
2018-06-10T14:37:16.040Z,27.20
2018-06-10T14:39:45.486Z,27.10
2018-06-10T14:42:14.935Z,27.10
2018-06-10T14:44:44.389Z,27.10
2018-06-10T14:47:13.852Z,27.00
2018-06-10T14:49:43.324Z,27.10
2018-06-10T14:52:12.770Z,27.20
2018-06-10T14:54:42.224Z,27.20
2018-06-10T14:57:11.721Z,27.30
2018-06-10T14:59:41.194Z,27.30
2018-06-10T15:02:10.629Z,27.40
2018-06-10T15:04:40.071Z,27.40
2018-06-10T15:07:10.024Z,27.30
2018-06-10T15:09:39.572Z,27.30
2018-06-10T15:12:08.989Z,27.20
2018-06-10T15:14:38.394Z,27.10
2018-06-10T15:17:07.789Z,27.00
2018-06-10T15:19:37.158Z,26.90
2018-06-10T15:22:06.547Z,26.90
2018-06-10T15:24:36.200Z,26.90
2018-06-10T15:27:05.694Z,26.80
2018-06-10T15:29:35.097Z,26.70
2018-06-10T15:32:04.624Z,26.70
2018-06-10T15:34:33.993Z,26.60
2018-06-10T15:37:03.372Z,26.50
2018-06-10T15:39:32.775Z,26.50
2018-06-10T15:42:02.149Z,26.40
2018-06-10T15:44:31.546Z,26.30
2018-06-10T15:47:00.922Z,26.30
2018-06-10T15:49:30.288Z,26.20
2018-06-10T15:51:59.662Z,26.20
2018-06-10T15:54:29.020Z,26.20
2018-06-10T15:56:58.388Z,26.20
2018-06-10T15:59:27.776Z,26.20
2018-06-10T16:01:57.140Z,26.20
2018-06-10T16:04:26.532Z,26.20
2018-06-10T16:07:00.187Z,26.20
2018-06-10T16:09:29.998Z,26.10
2018-06-10T16:11:59.459Z,26.10
2018-06-10T16:14:28.816Z,26.10
2018-06-10T16:16:58.956Z,26.20
2018-06-10T16:19:28.453Z,26.20
2018-06-10T16:21:57.821Z,26.30
2018-06-10T16:24:27.198Z,26.30
2018-06-10T16:26:56.917Z,26.30
2018-06-10T16:29:26.274Z,26.40
2018-06-10T16:31:56.100Z,26.40
2018-06-10T16:34:25.971Z,26.50
2018-06-10T16:36:55.576Z,26.50
2018-06-10T16:39:25.741Z,26.50
2018-06-10T16:41:55.407Z,26.50
2018-06-10T16:44:25.570Z,26.50
2018-06-10T16:46:55.292Z,26.50
2018-06-10T16:49:25.053Z,26.50
2018-06-10T16:51:54.919Z,26.50
2018-06-10T16:54:24.972Z,26.50
2018-06-10T16:56:54.937Z,26.50
2018-06-10T16:59:24.353Z,26.50
2018-06-10T17:01:53.840Z,26.50
2018-06-10T17:04:23.901Z,26.50
2018-06-10T17:06:53.288Z,26.50
2018-06-10T17:09:22.677Z,26.50
2018-06-10T17:11:52.835Z,26.50
2018-06-10T17:14:22.958Z,26.60
2018-06-10T17:16:53.028Z,26.50
2018-06-10T17:19:23.089Z,26.60
2018-06-10T17:21:52.460Z,26.60
2018-06-10T17:24:21.857Z,26.60
2018-06-10T17:26:51.694Z,26.50
2018-06-10T17:29:21.871Z,26.50
2018-06-10T17:31:51.298Z,26.50
2018-06-10T17:34:20.684Z,26.50
2018-06-10T17:36:50.099Z,26.40
2018-06-10T17:39:20.503Z,26.40
2018-06-10T17:41:50.884Z,26.40
2018-06-10T17:44:20.617Z,26.30
2018-06-10T17:46:50.012Z,26.30
2018-06-10T17:49:19.737Z,26.30
2018-06-10T17:51:49.900Z,26.20
2018-06-10T17:54:19.895Z,26.20
2018-06-10T17:56:49.580Z,26.20
2018-06-10T17:59:18.961Z,26.10
2018-06-10T18:01:48.540Z,26.10
2018-06-10T18:04:17.917Z,26.00
2018-06-10T18:06:47.884Z,25.90
2018-06-10T18:09:17.711Z,25.80
2018-06-10T18:11:47.816Z,25.70
2018-06-10T18:14:17.750Z,25.60
2018-06-10T18:16:47.484Z,25.50
2018-06-10T18:19:17.787Z,25.40
2018-06-10T18:21:47.177Z,25.40
2018-06-10T18:24:16.626Z,25.20
2018-06-10T18:26:46.077Z,25.10
2018-06-10T18:29:15.453Z,25.10
2018-06-10T18:31:44.853Z,25.00
2018-06-10T18:34:14.251Z,24.90
2018-06-10T18:36:43.791Z,24.80
2018-06-10T18:39:13.189Z,24.70
2018-06-10T18:41:42.868Z,24.60
2018-06-10T18:44:13.094Z,24.60
2018-06-10T18:46:42.764Z,24.50
2018-06-10T18:49:12.712Z,24.40
2018-06-10T18:51:42.116Z,24.30
2018-06-10T18:54:12.347Z,24.30
2018-06-10T18:56:41.724Z,24.20
2018-06-10T18:59:11.644Z,24.10
2018-06-10T19:01:41.774Z,24.10
2018-06-10T19:04:11.201Z,24.00
2018-06-10T19:06:40.756Z,24.00
2018-06-10T19:09:10.429Z,23.90
2018-06-10T19:11:39.816Z,23.90
2018-06-10T19:14:09.404Z,23.80
2018-06-10T19:16:39.532Z,23.90
2018-06-10T19:19:08.900Z,23.80
2018-06-10T19:21:38.276Z,23.80
2018-06-10T19:24:07.677Z,23.80
2018-06-10T19:26:37.074Z,23.70
2018-06-10T19:29:06.635Z,23.70
2018-06-10T19:31:37.110Z,23.60
2018-06-10T19:36:35.845Z,23.50
2018-06-10T19:39:06.717Z,23.50
2018-06-10T19:41:36.507Z,23.40
2018-06-10T19:44:05.936Z,23.30
2018-06-10T19:46:35.829Z,23.30
2018-06-10T19:49:05.384Z,23.20
2018-06-10T19:51:34.761Z,23.20
2018-06-10T19:54:04.244Z,23.10
2018-06-10T19:56:33.789Z,23.10
2018-06-10T19:59:03.554Z,23.00
2018-06-10T20:01:33.385Z,23.00
2018-06-10T20:04:02.817Z,23.00
2018-06-10T20:06:32.591Z,23.00
2018-06-10T20:09:01.981Z,22.90
2018-06-10T20:11:36.633Z,22.90
2018-06-10T20:14:06.329Z,22.90
2018-06-10T20:16:35.778Z,22.80
2018-06-10T20:19:05.332Z,22.80
2018-06-10T20:21:34.860Z,22.80
2018-06-10T20:24:04.282Z,22.80
2018-06-10T20:26:33.698Z,22.70
2018-06-10T20:29:03.129Z,22.70
2018-06-10T20:31:32.544Z,22.70
2018-06-10T20:34:02.189Z,22.70
2018-06-10T20:36:31.591Z,22.70
2018-06-10T20:39:01.260Z,22.70
2018-06-10T20:41:30.749Z,22.70
2018-06-10T20:44:00.153Z,22.70
2018-06-10T20:46:29.570Z,22.70
2018-06-10T20:48:58.940Z,22.70
2018-06-10T20:51:28.313Z,22.60
2018-06-10T20:53:57.776Z,22.60
2018-06-10T20:56:27.145Z,22.60
2018-06-10T20:58:56.676Z,22.50
2018-06-10T21:01:26.418Z,22.50
2018-06-10T21:03:56.149Z,22.40
2018-06-10T21:06:25.522Z,22.40
2018-06-10T21:08:54.924Z,22.40
2018-06-10T21:11:24.353Z,22.40
2018-06-10T21:13:53.733Z,22.40
2018-06-10T21:16:23.131Z,22.40
2018-06-10T21:18:52.544Z,22.40
2018-06-10T21:21:22.001Z,22.40
2018-06-10T21:23:51.378Z,22.40
2018-06-10T21:26:20.768Z,22.40
2018-06-10T21:28:50.155Z,22.40
2018-06-10T21:31:19.970Z,22.40
2018-06-10T21:33:49.335Z,22.40
2018-06-10T21:36:18.734Z,22.30
2018-06-10T21:38:48.122Z,22.30
2018-06-10T21:41:17.765Z,22.30
2018-06-10T21:43:47.366Z,22.30
2018-06-10T21:46:16.858Z,22.30
2018-06-10T21:48:46.314Z,22.30
2018-06-10T21:51:15.829Z,22.30
2018-06-10T21:53:45.274Z,22.30
2018-06-10T21:56:15.025Z,22.30
2018-06-10T21:58:44.396Z,22.30
2018-06-10T22:01:13.864Z,22.30
2018-06-10T22:03:43.630Z,22.30
2018-06-10T22:06:12.989Z,22.30
2018-06-10T22:08:42.860Z,22.30
2018-06-10T22:11:12.257Z,22.30
2018-06-10T22:13:41.621Z,22.30
2018-06-10T22:16:11.017Z,22.30
2018-06-10T22:18:40.511Z,22.30
2018-06-10T22:21:09.872Z,22.30
2018-06-10T22:23:39.241Z,22.20
2018-06-10T22:26:08.630Z,22.30
2018-06-10T22:28:38.025Z,22.20
2018-06-10T22:31:07.636Z,22.20
2018-06-10T22:33:37.244Z,22.20
2018-06-10T22:36:07.143Z,22.30
2018-06-10T22:38:36.856Z,22.30
2018-06-10T22:41:06.725Z,22.30
2018-06-10T22:43:36.524Z,22.20
2018-06-10T22:46:06.233Z,22.30
2018-06-10T22:48:36.207Z,22.30
2018-06-10T22:54:16.871Z,22.30
2018-06-10T22:56:46.598Z,22.30
2018-06-10T22:59:16.300Z,22.30
2018-06-10T23:01:46.036Z,22.30
2018-06-10T23:04:15.681Z,22.30
2018-06-10T23:06:45.291Z,22.30
2018-06-10T23:09:15.049Z,22.30
2018-06-10T23:14:13.763Z,22.20
2018-06-10T23:16:43.566Z,22.20
2018-06-10T23:21:42.368Z,22.20
2018-06-10T23:24:12.016Z,22.20
2018-06-10T23:26:41.704Z,22.20
2018-06-10T23:29:11.393Z,22.20
2018-06-10T23:31:40.957Z,22.20
2018-06-10T23:34:10.980Z,22.20
2018-06-10T23:36:40.764Z,22.20
2018-06-10T23:39:10.493Z,22.20
2018-06-10T23:41:40.297Z,22.20
2018-06-10T23:44:09.991Z,22.20
2018-06-10T23:46:39.768Z,22.20
2018-06-10T23:49:09.740Z,22.10
2018-06-10T23:51:39.449Z,22.10
2018-06-10T23:54:09.365Z,22.00
2018-06-10T23:56:39.121Z,22.10
2018-06-10T23:59:08.672Z,22.00
